Terminal Aerodrome Forecast
Issued by NWS

Home | Current Version | Previous Version | Text Only | Print | Product List | Glossary On
Versions: 1 2 3 4 5 6 7 8 9 10 11 12 13 14 15 16 17 18 19 20 21 22 23
525
FTUS42 KTBW 211729
TAFLAL
TAF
KLAL 211729Z 2118/2218 12011KT P6SM VCTS SCT020CB BKN040
      TEMPO 2118/2122 VRB15G25KT 2SM +TSRA BKN020CB
     FM212200 11008KT P6SM VCSH SCT020 BKN040
     FM220200 11006KT P6SM SCT025 BKN060
     FM221000 11005KT P6SM FEW010 BKN060
     FM221400 13009KT P6SM VCSH SCT015 BKN060
     FM221700 13010KT P6SM VCTS SCT025CB BKN040=

USA.gov is the U.S. government's official web portal to all federal, state and local government web resources and services.